sensor_id;sensor_type;location;lat;lon;timestamp;P1;durP1;ratioP1;P2;durP2;ratioP2
12703;SDS011;6416;52.182;7.650;2022-11-15T00:01:23;8.83;;;7.93;;
12703;SDS011;6416;52.182;7.650;2022-11-15T00:03:50;8.10;;;7.30;;
12703;SDS011;6416;52.182;7.650;2022-11-15T00:06:16;8.63;;;7.80;;
12703;SDS011;6416;52.182;7.650;2022-11-15T00:08:42;8.23;;;7.43;;
12703;SDS011;6416;52.182;7.650;2022-11-15T00:11:08;9.57;;;7.50;;
12703;SDS011;6416;52.182;7.650;2022-11-15T00:13:35;8.17;;;7.07;;
12703;SDS011;6416;52.182;7.650;2022-11-15T00:16:01;7.97;;;7.17;;
12703;SDS011;6416;52.182;7.650;2022-11-15T00:18:27;7.97;;;7.17;;
12703;SDS011;6416;52.182;7.650;2022-11-15T00:20:53;8.73;;;7.40;;
12703;SDS011;6416;52.182;7.650;2022-11-15T00:23:19;8.80;;;7.13;;
12703;SDS011;6416;52.182;7.650;2022-11-15T00:25:44;8.50;;;7.70;;
12703;SDS011;6416;52.182;7.650;2022-11-15T00:28:10;7.53;;;6.83;;
12703;SDS011;6416;52.182;7.650;2022-11-15T00:30:36;7.97;;;7.17;;
12703;SDS011;6416;52.182;7.650;2022-11-15T00:33:02;9.20;;;8.20;;
12703;SDS011;6416;52.182;7.650;2022-11-15T00:35:31;8.63;;;7.17;;
12703;SDS011;6416;52.182;7.650;2022-11-15T00:37:58;8.27;;;7.47;;
12703;SDS011;6416;52.182;7.650;2022-11-15T00:40:24;6.87;;;6.23;;
12703;SDS011;6416;52.182;7.650;2022-11-15T00:42:49;7.67;;;6.87;;
12703;SDS011;6416;52.182;7.650;2022-11-15T00:45:15;8.67;;;7.23;;
12703;SDS011;6416;52.182;7.650;2022-11-15T00:47:43;7.80;;;6.73;;
12703;SDS011;6416;52.182;7.650;2022-11-15T00:50:09;7.70;;;6.93;;
12703;SDS011;6416;52.182;7.650;2022-11-15T00:52:35;7.93;;;7.13;;
12703;SDS011;6416;52.182;7.650;2022-11-15T00:55:00;8.05;;;7.20;;
12703;SDS011;6416;52.182;7.650;2022-11-15T00:57:25;9.40;;;7.67;;
12703;SDS011;6416;52.182;7.650;2022-11-15T00:59:51;8.47;;;7.63;;
12703;SDS011;6416;52.182;7.650;2022-11-15T01:02:16;8.37;;;6.93;;
12703;SDS011;6416;52.182;7.650;2022-11-15T01:04:45;7.53;;;6.80;;
12703;SDS011;6416;52.182;7.650;2022-11-15T01:07:10;8.73;;;6.90;;
12703;SDS011;6416;52.182;7.650;2022-11-15T01:09:36;7.27;;;6.57;;
12703;SDS011;6416;52.182;7.650;2022-11-15T01:12:01;7.83;;;7.13;;
12703;SDS011;6416;52.182;7.650;2022-11-15T01:14:27;7.07;;;6.37;;
12703;SDS011;6416;52.182;7.650;2022-11-15T01:16:52;6.93;;;6.23;;
12703;SDS011;6416;52.182;7.650;2022-11-15T01:19:18;7.30;;;6.60;;
12703;SDS011;6416;52.182;7.650;2022-11-15T01:21:43;7.47;;;6.77;;
12703;SDS011;6416;52.182;7.650;2022-11-15T01:24:11;7.87;;;6.77;;
12703;SDS011;6416;52.182;7.650;2022-11-15T01:26:38;6.83;;;6.13;;
12703;SDS011;6416;52.182;7.650;2022-11-15T01:29:03;6.77;;;6.10;;
12703;SDS011;6416;52.182;7.650;2022-11-15T01:31:29;6.37;;;5.77;;
12703;SDS011;6416;52.182;7.650;2022-11-15T01:33:54;7.37;;;5.70;;
12703;SDS011;6416;52.182;7.650;2022-11-15T01:36:21;5.97;;;5.47;;
12703;SDS011;6416;52.182;7.650;2022-11-15T01:38:47;6.47;;;5.83;;
12703;SDS011;6416;52.182;7.650;2022-11-15T01:41:22;6.73;;;5.80;;
12703;SDS011;6416;52.182;7.650;2022-11-15T01:43:51;6.17;;;5.27;;
12703;SDS011;6416;52.182;7.650;2022-11-15T01:48:47;7.47;;;6.27;;
12703;SDS011;6416;52.182;7.650;2022-11-15T01:51:15;7.87;;;6.33;;
12703;SDS011;6416;52.182;7.650;2022-11-15T01:53:43;6.20;;;5.60;;
12703;SDS011;6416;52.182;7.650;2022-11-15T01:56:13;6.67;;;5.70;;
12703;SDS011;6416;52.182;7.650;2022-11-15T01:58:42;6.67;;;6.07;;
12703;SDS011;6416;52.182;7.650;2022-11-15T02:01:09;6.53;;;5.93;;
12703;SDS011;6416;52.182;7.650;2022-11-15T02:06:23;6.77;;;5.47;;
12703;SDS011;6416;52.182;7.650;2022-11-15T02:08:49;6.73;;;6.07;;
12703;SDS011;6416;52.182;7.650;2022-11-15T02:11:15;6.60;;;5.90;;
12703;SDS011;6416;52.182;7.650;2022-11-15T02:13:40;6.03;;;5.43;;
12703;SDS011;6416;52.182;7.650;2022-11-15T02:16:10;8.33;;;6.40;;
12703;SDS011;6416;52.182;7.650;2022-11-15T02:18:39;7.00;;;6.30;;
12703;SDS011;6416;52.182;7.650;2022-11-15T02:21:15;6.90;;;6.20;;
12703;SDS011;6416;52.182;7.650;2022-11-15T02:40:56;7.60;;;6.00;;
12703;SDS011;6416;52.182;7.650;2022-11-15T02:46:09;7.00;;;6.30;;
12703;SDS011;6416;52.182;7.650;2022-11-15T02:48:48;5.90;;;5.40;;
12703;SDS011;6416;52.182;7.650;2022-11-15T02:51:15;5.77;;;5.23;;
12703;SDS011;6416;52.182;7.650;2022-11-15T02:53:42;6.20;;;5.60;;
12703;SDS011;6416;52.182;7.650;2022-11-15T02:56:07;6.20;;;5.60;;
12703;SDS011;6416;52.182;7.650;2022-11-15T03:06:47;6.97;;;5.63;;
12703;SDS011;6416;52.182;7.650;2022-11-15T03:09:21;5.80;;;5.20;;
12703;SDS011;6416;52.182;7.650;2022-11-15T03:12:03;5.83;;;5.37;;
12703;SDS011;6416;52.182;7.650;2022-11-15T03:14:37;5.83;;;5.33;;
12703;SDS011;6416;52.182;7.650;2022-11-15T03:19:47;6.57;;;5.60;;
12703;SDS011;6416;52.182;7.650;2022-11-15T03:22:17;6.20;;;5.60;;
12703;SDS011;6416;52.182;7.650;2022-11-15T03:24:46;5.47;;;4.97;;
12703;SDS011;6416;52.182;7.650;2022-11-15T03:27:17;5.80;;;5.27;;
12703;SDS011;6416;52.182;7.650;2022-11-15T03:29:48;6.27;;;4.67;;
12703;SDS011;6416;52.182;7.650;2022-11-15T03:32:22;5.70;;;4.97;;
12703;SDS011;6416;52.182;7.650;2022-11-15T03:34:52;6.43;;;5.80;;
12703;SDS011;6416;52.182;7.650;2022-11-15T03:37:23;6.40;;;5.80;;
12703;SDS011;6416;52.182;7.650;2022-11-15T03:39:54;6.80;;;5.20;;
12703;SDS011;6416;52.182;7.650;2022-11-15T03:42:21;6.60;;;5.77;;
12703;SDS011;6416;52.182;7.650;2022-11-15T03:47:45;6.37;;;5.67;;
12703;SDS011;6416;52.182;7.650;2022-11-15T03:50:22;6.73;;;5.30;;
12703;SDS011;6416;52.182;7.650;2022-11-15T03:52:49;6.13;;;5.53;;
12703;SDS011;6416;52.182;7.650;2022-11-15T03:55:18;5.93;;;5.43;;
12703;SDS011;6416;52.182;7.650;2022-11-15T03:57:45;5.63;;;5.13;;
12703;SDS011;6416;52.182;7.650;2022-11-15T04:00:13;5.87;;;5.37;;
12703;SDS011;6416;52.182;7.650;2022-11-15T04:02:38;5.57;;;4.80;;
12703;SDS011;6416;52.182;7.650;2022-11-15T04:05:04;4.70;;;4.20;;
12703;SDS011;6416;52.182;7.650;2022-11-15T04:07:32;5.30;;;4.80;;
12703;SDS011;6416;52.182;7.650;2022-11-15T04:09:58;5.47;;;4.63;;
12703;SDS011;6416;52.182;7.650;2022-11-15T04:12:24;5.80;;;4.73;;
12703;SDS011;6416;52.182;7.650;2022-11-15T04:14:49;5.20;;;4.70;;
12703;SDS011;6416;52.182;7.650;2022-11-15T04:17:15;4.93;;;4.53;;
12703;SDS011;6416;52.182;7.650;2022-11-15T04:19:40;7.50;;;5.13;;
12703;SDS011;6416;52.182;7.650;2022-11-15T04:22:07;5.67;;;5.07;;
12703;SDS011;6416;52.182;7.650;2022-11-15T04:24:32;7.77;;;4.83;;
12703;SDS011;6416;52.182;7.650;2022-11-15T04:26:58;5.70;;;5.10;;
12703;SDS011;6416;52.182;7.650;2022-11-15T04:29:24;7.03;;;4.67;;
12703;SDS011;6416;52.182;7.650;2022-11-15T04:31:49;6.33;;;5.73;;
12703;SDS011;6416;52.182;7.650;2022-11-15T04:34:15;5.93;;;5.33;;
12703;SDS011;6416;52.182;7.650;2022-11-15T04:36:40;5.93;;;5.03;;
12703;SDS011;6416;52.182;7.650;2022-11-15T04:39:06;4.80;;;4.40;;
12703;SDS011;6416;52.182;7.650;2022-11-15T04:41:32;6.00;;;4.73;;
12703;SDS011;6416;52.182;7.650;2022-11-15T04:43:58;5.23;;;4.70;;
12703;SDS011;6416;52.182;7.650;2022-11-15T04:46:23;5.20;;;4.60;;
12703;SDS011;6416;52.182;7.650;2022-11-15T04:48:49;5.43;;;4.93;;
12703;SDS011;6416;52.182;7.650;2022-11-15T04:51:15;5.67;;;5.17;;
12703;SDS011;6416;52.182;7.650;2022-11-15T04:53:41;4.97;;;4.53;;
12703;SDS011;6416;52.182;7.650;2022-11-15T04:56:07;5.20;;;4.70;;
12703;SDS011;6416;52.182;7.650;2022-11-15T04:58:32;5.77;;;4.80;;
12703;SDS011;6416;52.182;7.650;2022-11-15T05:00:58;5.00;;;4.50;;
12703;SDS011;6416;52.182;7.650;2022-11-15T05:03:30;5.90;;;4.77;;
12703;SDS011;6416;52.182;7.650;2022-11-15T05:05:56;5.33;;;4.83;;
12703;SDS011;6416;52.182;7.650;2022-11-15T05:08:22;5.07;;;4.67;;
12703;SDS011;6416;52.182;7.650;2022-11-15T05:10:48;5.40;;;4.90;;
12703;SDS011;6416;52.182;7.650;2022-11-15T05:13:13;4.67;;;4.27;;
12703;SDS011;6416;52.182;7.650;2022-11-15T05:15:38;5.13;;;4.63;;
12703;SDS011;6416;52.182;7.650;2022-11-15T05:18:04;4.43;;;4.03;;
12703;SDS011;6416;52.182;7.650;2022-11-15T05:20:29;5.07;;;4.57;;
12703;SDS011;6416;52.182;7.650;2022-11-15T05:22:55;6.93;;;4.60;;
12703;SDS011;6416;52.182;7.650;2022-11-15T05:25:21;5.50;;;4.50;;
12703;SDS011;6416;52.182;7.650;2022-11-15T05:27:47;6.73;;;4.67;;
12703;SDS011;6416;52.182;7.650;2022-11-15T05:30:12;5.63;;;3.90;;
12703;SDS011;6416;52.182;7.650;2022-11-15T05:32:38;5.00;;;4.50;;
12703;SDS011;6416;52.182;7.650;2022-11-15T05:35:04;5.80;;;4.37;;
12703;SDS011;6416;52.182;7.650;2022-11-15T05:37:33;5.23;;;4.17;;
12703;SDS011;6416;52.182;7.650;2022-11-15T05:39:59;4.63;;;4.23;;
12703;SDS011;6416;52.182;7.650;2022-11-15T05:42:24;4.67;;;4.27;;
12703;SDS011;6416;52.182;7.650;2022-11-15T05:44:52;6.13;;;4.70;;
12703;SDS011;6416;52.182;7.650;2022-11-15T05:47:19;5.07;;;4.63;;
12703;SDS011;6416;52.182;7.650;2022-11-15T05:49:49;5.27;;;4.10;;
12703;SDS011;6416;52.182;7.650;2022-11-15T05:52:17;5.27;;;4.50;;
12703;SDS011;6416;52.182;7.650;2022-11-15T05:54:46;5.40;;;4.53;;
12703;SDS011;6416;52.182;7.650;2022-11-15T05:57:11;5.20;;;4.47;;
12703;SDS011;6416;52.182;7.650;2022-11-15T05:59:37;7.50;;;4.50;;
12703;SDS011;6416;52.182;7.650;2022-11-15T06:02:03;5.20;;;4.73;;
12703;SDS011;6416;52.182;7.650;2022-11-15T06:04:28;4.70;;;4.30;;
12703;SDS011;6416;52.182;7.650;2022-11-15T06:06:54;5.10;;;4.60;;
12703;SDS011;6416;52.182;7.650;2022-11-15T06:09:19;4.93;;;4.27;;
12703;SDS011;6416;52.182;7.650;2022-11-15T06:11:44;5.17;;;4.67;;
12703;SDS011;6416;52.182;7.650;2022-11-15T06:14:10;4.93;;;4.37;;
12703;SDS011;6416;52.182;7.650;2022-11-15T06:16:35;4.90;;;4.40;;
12703;SDS011;6416;52.182;7.650;2022-11-15T06:19:01;6.97;;;4.67;;
12703;SDS011;6416;52.182;7.650;2022-11-15T06:21:26;5.20;;;4.43;;
12703;SDS011;6416;52.182;7.650;2022-11-15T06:23:52;4.60;;;4.20;;
12703;SDS011;6416;52.182;7.650;2022-11-15T06:26:17;4.80;;;4.30;;
12703;SDS011;6416;52.182;7.650;2022-11-15T06:28:43;4.43;;;4.03;;
12703;SDS011;6416;52.182;7.650;2022-11-15T06:31:09;4.47;;;4.07;;
12703;SDS011;6416;52.182;7.650;2022-11-15T06:33:35;6.07;;;4.63;;
12703;SDS011;6416;52.182;7.650;2022-11-15T06:36:02;5.17;;;4.67;;
12703;SDS011;6416;52.182;7.650;2022-11-15T06:38:29;4.83;;;4.33;;
12703;SDS011;6416;52.182;7.650;2022-11-15T06:40:54;4.80;;;4.33;;
12703;SDS011;6416;52.182;7.650;2022-11-15T06:43:20;7.80;;;4.40;;
12703;SDS011;6416;52.182;7.650;2022-11-15T06:45:45;4.53;;;4.13;;
12703;SDS011;6416;52.182;7.650;2022-11-15T06:48:11;6.97;;;4.60;;
12703;SDS011;6416;52.182;7.650;2022-11-15T06:50:36;6.50;;;4.83;;
12703;SDS011;6416;52.182;7.650;2022-11-15T06:53:03;5.13;;;4.63;;
12703;SDS011;6416;52.182;7.650;2022-11-15T06:55:29;4.87;;;4.37;;
12703;SDS011;6416;52.182;7.650;2022-11-15T06:57:54;5.13;;;4.57;;
12703;SDS011;6416;52.182;7.650;2022-11-15T07:00:20;4.90;;;4.40;;
12703;SDS011;6416;52.182;7.650;2022-11-15T07:02:47;5.27;;;4.60;;
12703;SDS011;6416;52.182;7.650;2022-11-15T07:05:12;5.17;;;4.53;;
12703;SDS011;6416;52.182;7.650;2022-11-15T07:07:39;5.03;;;4.57;;
12703;SDS011;6416;52.182;7.650;2022-11-15T07:10:05;5.43;;;4.40;;
12703;SDS011;6416;52.182;7.650;2022-11-15T07:12:31;4.63;;;4.10;;
12703;SDS011;6416;52.182;7.650;2022-11-15T07:14:56;5.67;;;4.40;;
12703;SDS011;6416;52.182;7.650;2022-11-15T07:17:22;5.37;;;4.57;;
12703;SDS011;6416;52.182;7.650;2022-11-15T07:19:47;5.13;;;4.50;;
12703;SDS011;6416;52.182;7.650;2022-11-15T07:22:13;4.30;;;3.90;;
12703;SDS011;6416;52.182;7.650;2022-11-15T07:24:38;5.13;;;4.63;;
12703;SDS011;6416;52.182;7.650;2022-11-15T07:27:04;4.47;;;4.00;;
12703;SDS011;6416;52.182;7.650;2022-11-15T07:29:29;5.13;;;4.63;;
12703;SDS011;6416;52.182;7.650;2022-11-15T07:31:55;4.47;;;4.07;;
12703;SDS011;6416;52.182;7.650;2022-11-15T07:34:20;5.03;;;4.53;;
12703;SDS011;6416;52.182;7.650;2022-11-15T07:36:46;5.63;;;4.60;;
12703;SDS011;6416;52.182;7.650;2022-11-15T07:39:11;5.30;;;4.77;;
12703;SDS011;6416;52.182;7.650;2022-11-15T07:41:36;5.03;;;4.43;;
12703;SDS011;6416;52.182;7.650;2022-11-15T07:44:02;4.47;;;4.07;;
12703;SDS011;6416;52.182;7.650;2022-11-15T07:46:28;4.93;;;4.53;;
12703;SDS011;6416;52.182;7.650;2022-11-15T07:48:53;5.23;;;4.17;;
12703;SDS011;6416;52.182;7.650;2022-11-15T07:51:19;6.43;;;4.37;;
12703;SDS011;6416;52.182;7.650;2022-11-15T07:53:44;4.83;;;4.40;;
12703;SDS011;6416;52.182;7.650;2022-11-15T07:56:10;4.87;;;4.13;;
12703;SDS011;6416;52.182;7.650;2022-11-15T07:58:36;7.33;;;4.73;;
12703;SDS011;6416;52.182;7.650;2022-11-15T08:01:03;6.73;;;4.10;;
12703;SDS011;6416;52.182;7.650;2022-11-15T08:03:29;6.10;;;4.70;;
12703;SDS011;6416;52.182;7.650;2022-11-15T08:05:54;4.47;;;4.07;;
12703;SDS011;6416;52.182;7.650;2022-11-15T08:08:20;4.53;;;4.10;;
12703;SDS011;6416;52.182;7.650;2022-11-15T08:10:45;5.00;;;4.50;;
12703;SDS011;6416;52.182;7.650;2022-11-15T08:13:11;4.87;;;4.30;;
12703;SDS011;6416;52.182;7.650;2022-11-15T08:15:37;6.07;;;4.80;;
12703;SDS011;6416;52.182;7.650;2022-11-15T08:18:04;6.80;;;4.13;;
12703;SDS011;6416;52.182;7.650;2022-11-15T08:20:31;6.10;;;4.70;;
12703;SDS011;6416;52.182;7.650;2022-11-15T08:22:57;5.27;;;4.53;;
12703;SDS011;6416;52.182;7.650;2022-11-15T08:25:24;4.70;;;4.30;;
12703;SDS011;6416;52.182;7.650;2022-11-15T08:27:54;4.80;;;3.73;;
12703;SDS011;6416;52.182;7.650;2022-11-15T08:30:21;4.43;;;4.00;;
12703;SDS011;6416;52.182;7.650;2022-11-15T08:32:48;5.43;;;4.40;;
12703;SDS011;6416;52.182;7.650;2022-11-15T08:35:14;4.43;;;4.03;;
12703;SDS011;6416;52.182;7.650;2022-11-15T08:37:39;4.80;;;4.33;;
12703;SDS011;6416;52.182;7.650;2022-11-15T08:40:05;4.53;;;4.07;;
12703;SDS011;6416;52.182;7.650;2022-11-15T08:42:31;4.47;;;4.00;;
12703;SDS011;6416;52.182;7.650;2022-11-15T08:44:56;5.33;;;4.73;;
12703;SDS011;6416;52.182;7.650;2022-11-15T08:47:22;4.10;;;3.70;;
12703;SDS011;6416;52.182;7.650;2022-11-15T08:49:47;4.00;;;3.70;;
12703;SDS011;6416;52.182;7.650;2022-11-15T08:52:13;4.23;;;3.87;;
12703;SDS011;6416;52.182;7.650;2022-11-15T08:54:39;4.37;;;3.97;;
12703;SDS011;6416;52.182;7.650;2022-11-15T08:57:04;4.43;;;3.87;;
12703;SDS011;6416;52.182;7.650;2022-11-15T08:59:31;4.80;;;3.70;;
12703;SDS011;6416;52.182;7.650;2022-11-15T09:01:56;4.13;;;3.80;;
12703;SDS011;6416;52.182;7.650;2022-11-15T09:04:22;4.37;;;3.63;;
12703;SDS011;6416;52.182;7.650;2022-11-15T09:06:47;4.00;;;3.70;;
12703;SDS011;6416;52.182;7.650;2022-11-15T09:09:13;4.00;;;3.63;;
12703;SDS011;6416;52.182;7.650;2022-11-15T09:11:38;4.47;;;3.60;;
12703;SDS011;6416;52.182;7.650;2022-11-15T09:14:03;3.87;;;3.50;;
12703;SDS011;6416;52.182;7.650;2022-11-15T09:16:30;3.87;;;3.17;;
12703;SDS011;6416;52.182;7.650;2022-11-15T09:18:55;3.20;;;2.90;;
12703;SDS011;6416;52.182;7.650;2022-11-15T09:21:21;2.77;;;2.57;;
12703;SDS011;6416;52.182;7.650;2022-11-15T09:23:49;4.70;;;3.60;;
12703;SDS011;6416;52.182;7.650;2022-11-15T09:26:15;3.40;;;3.00;;
12703;SDS011;6416;52.182;7.650;2022-11-15T09:28:41;3.17;;;2.87;;
12703;SDS011;6416;52.182;7.650;2022-11-15T09:31:06;3.45;;;2.65;;
12703;SDS011;6416;52.182;7.650;2022-11-15T09:33:33;3.58;;;2.78;;
12703;SDS011;6416;52.182;7.650;2022-11-15T09:36:03;3.70;;;2.28;;
12703;SDS011;6416;52.182;7.650;2022-11-15T09:38:31;2.90;;;2.70;;
12703;SDS011;6416;52.182;7.650;2022-11-15T09:49:39;2.40;;;2.20;;
12703;SDS011;6416;52.182;7.650;2022-11-15T09:52:06;3.70;;;1.88;;
12703;SDS011;6416;52.182;7.650;2022-11-15T09:54:37;1.95;;;1.70;;
12703;SDS011;6416;52.182;7.650;2022-11-15T09:57:13;1.65;;;1.55;;
12703;SDS011;6416;52.182;7.650;2022-11-15T10:05:10;1.73;;;1.63;;
12703;SDS011;6416;52.182;7.650;2022-11-15T10:07:48;1.60;;;1.50;;
12703;SDS011;6416;52.182;7.650;2022-11-15T10:13:03;2.53;;;1.80;;
12703;SDS011;6416;52.182;7.650;2022-11-15T10:15:28;1.73;;;1.63;;
12703;SDS011;6416;52.182;7.650;2022-11-15T10:23:15;1.73;;;1.63;;
12703;SDS011;6416;52.182;7.650;2022-11-15T10:25:44;1.77;;;1.67;;
12703;SDS011;6416;52.182;7.650;2022-11-15T10:28:12;2.85;;;1.38;;
12703;SDS011;6416;52.182;7.650;2022-11-15T10:30:41;2.30;;;1.85;;
12703;SDS011;6416;52.182;7.650;2022-11-15T10:33:33;2.20;;;2.00;;
12703;SDS011;6416;52.182;7.650;2022-11-15T10:44:07;1.75;;;1.65;;
12703;SDS011;6416;52.182;7.650;2022-11-15T10:46:45;1.50;;;1.40;;
12703;SDS011;6416;52.182;7.650;2022-11-15T10:49:17;1.27;;;1.17;;
12703;SDS011;6416;52.182;7.650;2022-11-15T10:51:53;1.30;;;1.20;;
12703;SDS011;6416;52.182;7.650;2022-11-15T10:54:27;1.73;;;1.55;;
12703;SDS011;6416;52.182;7.650;2022-11-15T10:57:13;1.42;;;1.30;;
12703;SDS011;6416;52.182;7.650;2022-11-15T10:59:42;1.40;;;1.30;;
12703;SDS011;6416;52.182;7.650;2022-11-15T11:02:25;1.77;;;1.30;;
12703;SDS011;6416;52.182;7.650;2022-11-15T11:05:22;1.65;;;1.20;;
12703;SDS011;6416;52.182;7.650;2022-11-15T11:08:04;1.42;;;1.30;;
12703;SDS011;6416;52.182;7.650;2022-11-15T11:10:53;1.67;;;0.93;;
12703;SDS011;6416;52.182;7.650;2022-11-15T11:13:21;1.80;;;1.40;;
12703;SDS011;6416;52.182;7.650;2022-11-15T11:15:51;2.28;;;1.58;;
12703;SDS011;6416;52.182;7.650;2022-11-15T11:18:27;1.40;;;1.30;;
12703;SDS011;6416;52.182;7.650;2022-11-15T11:21:04;1.00;;;1.00;;
12703;SDS011;6416;52.182;7.650;2022-11-15T11:23:54;1.60;;;1.30;;
12703;SDS011;6416;52.182;7.650;2022-11-15T11:26:35;1.88;;;1.30;;
12703;SDS011;6416;52.182;7.650;2022-11-15T11:37:21;1.42;;;1.30;;
12703;SDS011;6416;52.182;7.650;2022-11-15T11:42:55;1.52;;;1.25;;
12703;SDS011;6416;52.182;7.650;2022-11-15T11:45:44;1.77;;;1.33;;
12703;SDS011;6416;52.182;7.650;2022-11-15T11:51:03;1.55;;;0.93;;
12703;SDS011;6416;52.182;7.650;2022-11-15T11:53:45;3.22;;;3.03;;
12703;SDS011;6416;52.182;7.650;2022-11-15T11:56:32;5.43;;;5.07;;
12703;SDS011;6416;52.182;7.650;2022-11-15T11:59:10;3.20;;;3.00;;
12703;SDS011;6416;52.182;7.650;2022-11-15T12:01:44;4.18;;;3.00;;
12703;SDS011;6416;52.182;7.650;2022-11-15T12:04:21;3.50;;;3.30;;
12703;SDS011;6416;52.182;7.650;2022-11-15T12:07:01;3.63;;;3.33;;
12703;SDS011;6416;52.182;7.650;2022-11-15T12:09:46;4.70;;;4.30;;
12703;SDS011;6416;52.182;7.650;2022-11-15T12:12:35;6.55;;;6.05;;
12703;SDS011;6416;52.182;7.650;2022-11-15T12:15:26;4.97;;;4.68;;
12703;SDS011;6416;52.182;7.650;2022-11-15T12:17:52;2.35;;;2.15;;
12703;SDS011;6416;52.182;7.650;2022-11-15T12:20:25;2.40;;;2.30;;
12703;SDS011;6416;52.182;7.650;2022-11-15T12:23:16;2.53;;;2.00;;
12703;SDS011;6416;52.182;7.650;2022-11-15T12:26:23;2.10;;;1.90;;
12703;SDS011;6416;52.182;7.650;2022-11-15T12:28:40;3.90;;;1.10;;
12703;SDS011;6416;52.182;7.650;2022-11-15T12:33:56;1.52;;;0.90;;
12703;SDS011;6416;52.182;7.650;2022-11-15T12:41:17;0.63;;;0.63;;
12703;SDS011;6416;52.182;7.650;2022-11-15T12:43:44;2.60;;;1.73;;
12703;SDS011;6416;52.182;7.650;2022-11-15T12:46:21;2.20;;;2.00;;
12703;SDS011;6416;52.182;7.650;2022-11-15T12:49:53;1.92;;;1.83;;
12703;SDS011;6416;52.182;7.650;2022-11-15T13:02:17;1.67;;;0.90;;
12703;SDS011;6416;52.182;7.650;2022-11-15T13:04:51;1.45;;;1.30;;
12703;SDS011;6416;52.182;7.650;2022-11-15T13:22:40;0.90;;;0.70;;
12703;SDS011;6416;52.182;7.650;2022-11-15T13:25:18;0.90;;;0.80;;
12703;SDS011;6416;52.182;7.650;2022-11-15T13:27:48;1.25;;;1.10;;
12703;SDS011;6416;52.182;7.650;2022-11-15T13:30:24;1.45;;;1.20;;
12703;SDS011;6416;52.182;7.650;2022-11-15T13:32:52;1.05;;;1.00;;
12703;SDS011;6416;52.182;7.650;2022-11-15T13:37:48;0.70;;;0.70;;
12703;SDS011;6416;52.182;7.650;2022-11-15T13:40:17;2.00;;;0.95;;
12703;SDS011;6416;52.182;7.650;2022-11-15T13:42:50;1.02;;;0.70;;
12703;SDS011;6416;52.182;7.650;2022-11-15T13:45:17;1.05;;;0.93;;
12703;SDS011;6416;52.182;7.650;2022-11-15T13:47:43;0.98;;;0.88;;
12703;SDS011;6416;52.182;7.650;2022-11-15T13:50:12;1.40;;;0.80;;
12703;SDS011;6416;52.182;7.650;2022-11-15T13:52:38;1.35;;;0.90;;
12703;SDS011;6416;52.182;7.650;2022-11-15T13:55:19;1.30;;;0.95;;
12703;SDS011;6416;52.182;7.650;2022-11-15T13:57:54;1.55;;;1.20;;
12703;SDS011;6416;52.182;7.650;2022-11-15T14:00:41;1.13;;;1.00;;
12703;SDS011;6416;52.182;7.650;2022-11-15T14:03:18;0.85;;;0.85;;
12703;SDS011;6416;52.182;7.650;2022-11-15T14:06:01;0.80;;;0.75;;
12703;SDS011;6416;52.182;7.650;2022-11-15T14:11:53;2.25;;;0.75;;
12703;SDS011;6416;52.182;7.650;2022-11-15T14:14:21;1.65;;;0.88;;
12703;SDS011;6416;52.182;7.650;2022-11-15T14:16:52;2.95;;;0.90;;
12703;SDS011;6416;52.182;7.650;2022-11-15T14:24:32;1.27;;;0.88;;
12703;SDS011;6416;52.182;7.650;2022-11-15T14:27:15;1.88;;;0.82;;
12703;SDS011;6416;52.182;7.650;2022-11-15T14:29:59;0.77;;;0.77;;
12703;SDS011;6416;52.182;7.650;2022-11-15T14:32:26;1.15;;;0.80;;
12703;SDS011;6416;52.182;7.650;2022-11-15T14:34:59;4.18;;;1.00;;
12703;SDS011;6416;52.182;7.650;2022-11-15T14:37:31;0.80;;;0.80;;
12703;SDS011;6416;52.182;7.650;2022-11-15T14:39:57;1.95;;;0.82;;
12703;SDS011;6416;52.182;7.650;2022-11-15T14:42:23;1.10;;;1.00;;
12703;SDS011;6416;52.182;7.650;2022-11-15T14:44:49;1.17;;;0.80;;
12703;SDS011;6416;52.182;7.650;2022-11-15T14:47:15;1.17;;;0.82;;
12703;SDS011;6416;52.182;7.650;2022-11-15T14:49:41;1.50;;;0.90;;
12703;SDS011;6416;52.182;7.650;2022-11-15T14:52:21;1.20;;;0.87;;
12703;SDS011;6416;52.182;7.650;2022-11-15T14:54:48;1.05;;;0.90;;
12703;SDS011;6416;52.182;7.650;2022-11-15T14:57:13;1.17;;;1.02;;
12703;SDS011;6416;52.182;7.650;2022-11-15T14:59:39;2.20;;;1.00;;
12703;SDS011;6416;52.182;7.650;2022-11-15T15:02:09;1.27;;;0.97;;
12703;SDS011;6416;52.182;7.650;2022-11-15T15:04:40;1.02;;;0.80;;
12703;SDS011;6416;52.182;7.650;2022-11-15T15:07:06;3.13;;;0.90;;
12703;SDS011;6416;52.182;7.650;2022-11-15T15:09:31;1.15;;;0.88;;
12703;SDS011;6416;52.182;7.650;2022-11-15T15:11:57;2.35;;;1.20;;
12703;SDS011;6416;52.182;7.650;2022-11-15T15:14:22;1.35;;;1.00;;
12703;SDS011;6416;52.182;7.650;2022-11-15T15:16:48;1.40;;;1.23;;
12703;SDS011;6416;52.182;7.650;2022-11-15T15:19:13;1.33;;;1.07;;
12703;SDS011;6416;52.182;7.650;2022-11-15T15:21:40;0.80;;;0.80;;
12703;SDS011;6416;52.182;7.650;2022-11-15T15:24:05;1.30;;;0.90;;
12703;SDS011;6416;52.182;7.650;2022-11-15T15:26:31;2.40;;;1.20;;
12703;SDS011;6416;52.182;7.650;2022-11-15T15:28:56;0.80;;;0.80;;
12703;SDS011;6416;52.182;7.650;2022-11-15T15:31:22;1.30;;;0.93;;
12703;SDS011;6416;52.182;7.650;2022-11-15T15:33:47;1.93;;;1.00;;
12703;SDS011;6416;52.182;7.650;2022-11-15T15:36:13;0.87;;;0.87;;
12703;SDS011;6416;52.182;7.650;2022-11-15T15:38:41;0.90;;;0.90;;
12703;SDS011;6416;52.182;7.650;2022-11-15T15:41:10;1.80;;;0.93;;
12703;SDS011;6416;52.182;7.650;2022-11-15T15:43:36;4.67;;;1.07;;
12703;SDS011;6416;52.182;7.650;2022-11-15T15:46:02;2.57;;;1.50;;
12703;SDS011;6416;52.182;7.650;2022-11-15T15:48:27;2.60;;;1.35;;
12703;SDS011;6416;52.182;7.650;2022-11-15T15:50:53;1.43;;;1.20;;
12703;SDS011;6416;52.182;7.650;2022-11-15T15:53:18;1.47;;;1.37;;
12703;SDS011;6416;52.182;7.650;2022-11-15T15:55:44;1.97;;;1.20;;
12703;SDS011;6416;52.182;7.650;2022-11-15T15:58:09;1.73;;;1.23;;
12703;SDS011;6416;52.182;7.650;2022-11-15T16:00:38;3.83;;;1.40;;
12703;SDS011;6416;52.182;7.650;2022-11-15T16:03:03;3.77;;;1.43;;
12703;SDS011;6416;52.182;7.650;2022-11-15T16:05:29;1.60;;;1.30;;
12703;SDS011;6416;52.182;7.650;2022-11-15T16:07:54;2.00;;;1.17;;
12703;SDS011;6416;52.182;7.650;2022-11-15T16:10:29;1.40;;;1.20;;
12703;SDS011;6416;52.182;7.650;2022-11-15T16:12:57;2.87;;;1.20;;
12703;SDS011;6416;52.182;7.650;2022-11-15T16:15:23;2.20;;;1.70;;
12703;SDS011;6416;52.182;7.650;2022-11-15T16:17:54;1.40;;;1.30;;
12703;SDS011;6416;52.182;7.650;2022-11-15T16:20:23;2.27;;;1.60;;
12703;SDS011;6416;52.182;7.650;2022-11-15T16:23:00;1.73;;;1.30;;
12703;SDS011;6416;52.182;7.650;2022-11-15T16:25:27;2.60;;;1.20;;
12703;SDS011;6416;52.182;7.650;2022-11-15T16:27:52;1.60;;;1.40;;
12703;SDS011;6416;52.182;7.650;2022-11-15T16:30:19;2.93;;;1.60;;
12703;SDS011;6416;52.182;7.650;2022-11-15T16:32:46;1.50;;;1.40;;
12703;SDS011;6416;52.182;7.650;2022-11-15T16:35:12;1.60;;;1.20;;
12703;SDS011;6416;52.182;7.650;2022-11-15T16:37:38;3.23;;;1.40;;
12703;SDS011;6416;52.182;7.650;2022-11-15T16:40:04;1.80;;;1.30;;
12703;SDS011;6416;52.182;7.650;2022-11-15T16:42:35;1.53;;;1.10;;
12703;SDS011;6416;52.182;7.650;2022-11-15T16:45:01;1.73;;;1.30;;
12703;SDS011;6416;52.182;7.650;2022-11-15T16:47:26;2.67;;;1.63;;
12703;SDS011;6416;52.182;7.650;2022-11-15T16:49:52;4.27;;;1.83;;
12703;SDS011;6416;52.182;7.650;2022-11-15T16:52:17;4.50;;;2.97;;
12703;SDS011;6416;52.182;7.650;2022-11-15T16:54:42;3.77;;;2.60;;
12703;SDS011;6416;52.182;7.650;2022-11-15T16:57:09;3.03;;;2.47;;
12703;SDS011;6416;52.182;7.650;2022-11-15T16:59:35;2.07;;;1.87;;
12703;SDS011;6416;52.182;7.650;2022-11-15T17:02:01;2.83;;;2.00;;
12703;SDS011;6416;52.182;7.650;2022-11-15T17:04:26;2.30;;;1.70;;
12703;SDS011;6416;52.182;7.650;2022-11-15T17:06:52;2.90;;;1.60;;
12703;SDS011;6416;52.182;7.650;2022-11-15T17:09:18;1.40;;;1.20;;
12703;SDS011;6416;52.182;7.650;2022-11-15T17:11:45;2.33;;;1.50;;
12703;SDS011;6416;52.182;7.650;2022-11-15T17:14:11;1.30;;;1.20;;
12703;SDS011;6416;52.182;7.650;2022-11-15T17:16:37;1.40;;;1.30;;